createdAt,value
2018-06-11T00:01:03.387Z,20.80
2018-06-11T00:02:07.874Z,21.85
2018-06-11T00:03:12.081Z,19.40
2018-06-11T00:04:16.477Z,21.68
2018-06-11T00:05:20.720Z,20.00
2018-06-11T00:06:24.958Z,21.27
2018-06-11T00:07:29.340Z,21.60
2018-06-11T00:08:33.825Z,21.48
2018-06-11T00:09:38.127Z,21.20
2018-06-11T00:10:42.473Z,22.15
2018-06-11T00:11:46.719Z,22.02
2018-06-11T00:12:50.980Z,22.70
2018-06-11T00:13:55.463Z,21.65
2018-06-11T00:14:59.983Z,21.42
2018-06-11T00:16:04.245Z,23.30
2018-06-11T00:17:08.491Z,21.82
2018-06-11T00:18:12.936Z,23.40
2018-06-11T00:19:17.164Z,19.70
2018-06-11T00:20:22.208Z,21.27
2018-06-11T00:21:26.539Z,21.37
2018-06-11T00:22:30.803Z,22.85
2018-06-11T00:23:35.128Z,22.00
2018-06-11T00:24:39.494Z,22.67
2018-06-11T00:25:43.852Z,21.57
2018-06-11T00:26:48.108Z,21.02
2018-06-11T00:27:52.566Z,22.80
2018-06-11T00:28:56.812Z,22.60
2018-06-11T00:30:01.012Z,21.73
2018-06-11T00:31:05.456Z,21.42
2018-06-11T00:32:09.939Z,22.55
2018-06-11T00:33:14.263Z,22.60
2018-06-11T00:34:18.577Z,23.22
2018-06-11T00:35:22.856Z,23.83
2018-06-11T00:36:27.127Z,22.50
2018-06-11T00:37:31.351Z,22.02
2018-06-11T00:38:35.596Z,22.37
2018-06-11T00:39:39.815Z,21.30
2018-06-11T00:40:44.091Z,22.52
2018-06-11T00:41:48.315Z,22.05
2018-06-11T00:42:52.578Z,22.07
2018-06-11T00:43:57.086Z,19.55
2018-06-11T00:45:01.343Z,21.68
2018-06-11T00:46:05.595Z,22.95
2018-06-11T00:47:09.874Z,21.33
2018-06-11T00:48:14.199Z,21.12
2018-06-11T00:49:18.429Z,21.12
2018-06-11T00:50:22.620Z,22.22
2018-06-11T00:51:26.868Z,21.68
2018-06-11T00:52:31.163Z,22.27
2018-06-11T00:53:35.407Z,19.92
2018-06-11T00:54:39.820Z,21.02
2018-06-11T00:55:55.193Z,21.57
2018-06-11T00:56:59.504Z,20.85
2018-06-11T00:58:04.019Z,21.77
2018-06-11T00:59:08.249Z,22.58
2018-06-11T01:00:12.512Z,21.10
2018-06-11T01:01:16.741Z,21.95
2018-06-11T01:02:21.251Z,21.70
2018-06-11T01:03:25.668Z,21.10
2018-06-11T01:04:29.944Z,20.60
2018-06-11T01:05:34.240Z,22.02
2018-06-11T01:06:38.483Z,22.80
2018-06-11T01:07:42.960Z,22.48
2018-06-11T01:08:47.232Z,21.80
2018-06-11T01:09:51.468Z,20.75
2018-06-11T01:10:55.799Z,20.70
2018-06-11T01:12:00.415Z,21.40
2018-06-11T01:13:04.741Z,22.07
2018-06-11T01:14:09.118Z,22.52
2018-06-11T01:15:13.379Z,23.20
2018-06-11T01:16:17.904Z,22.42
2018-06-11T01:17:22.250Z,21.95
2018-06-11T01:18:26.595Z,22.17
2018-06-11T01:19:30.830Z,22.40
2018-06-11T01:20:35.342Z,22.45
2018-06-11T01:21:39.598Z,23.10
2018-06-11T01:22:43.795Z,22.30
2018-06-11T01:23:48.006Z,22.58
2018-06-11T01:24:52.222Z,21.52
2018-06-11T01:25:56.464Z,21.42
2018-06-11T01:27:00.659Z,23.32
2018-06-11T01:28:04.900Z,22.80
2018-06-11T01:29:09.347Z,23.45
2018-06-11T01:30:13.587Z,21.35
2018-06-11T01:31:18.375Z,23.25
2018-06-11T01:32:22.629Z,22.15
2018-06-11T01:33:26.991Z,22.40
2018-06-11T01:34:31.180Z,21.90
2018-06-11T01:35:35.418Z,22.60
2018-06-11T01:36:39.843Z,24.07
2018-06-11T01:37:44.130Z,22.48
2018-06-11T01:38:48.364Z,23.55
2018-06-11T01:39:52.765Z,24.07
2018-06-11T01:40:57.197Z,24.12
2018-06-11T01:42:01.633Z,21.87
2018-06-11T01:43:05.868Z,22.77
2018-06-11T01:44:10.063Z,23.80
2018-06-11T01:45:14.307Z,23.60
2018-06-11T01:46:18.519Z,24.12
2018-06-11T01:47:22.884Z,23.32
2018-06-11T01:48:27.135Z,24.00
2018-06-11T01:49:31.556Z,23.70
2018-06-11T01:50:35.848Z,22.90
2018-06-11T01:51:40.128Z,22.87
2018-06-11T01:52:44.387Z,23.15
2018-06-11T01:53:48.685Z,21.57
2018-06-11T01:54:53.148Z,24.32
2018-06-11T01:55:57.333Z,22.25
2018-06-11T01:57:01.626Z,23.30
2018-06-11T01:58:05.882Z,23.38
2018-06-11T01:59:10.280Z,23.25
2018-06-11T02:00:14.556Z,23.77
2018-06-11T02:01:18.768Z,25.60
2018-06-11T02:02:23.334Z,24.15
2018-06-11T02:03:27.621Z,22.85
2018-06-11T02:04:31.895Z,24.43
2018-06-11T02:05:36.160Z,22.85
2018-06-11T02:06:40.386Z,23.87
2018-06-11T02:07:44.633Z,24.05
2018-06-11T02:08:48.827Z,25.25
2018-06-11T02:09:53.104Z,25.00
2018-06-11T02:10:57.404Z,24.77
2018-06-11T02:12:01.743Z,24.75
2018-06-11T02:13:06.310Z,23.73
2018-06-11T02:14:10.525Z,26.33
2018-06-11T02:15:14.764Z,25.75
2018-06-11T02:16:18.972Z,24.15
2018-06-11T02:17:23.226Z,25.45
2018-06-11T02:18:27.525Z,25.48
2018-06-11T02:19:31.799Z,25.95
2018-06-11T02:20:35.964Z,25.88
2018-06-11T02:21:40.167Z,25.62
2018-06-11T02:22:44.399Z,24.20
2018-06-11T02:23:48.819Z,24.32
2018-06-11T02:24:53.111Z,25.45
2018-06-11T02:25:57.402Z,25.62
2018-06-11T02:27:01.721Z,26.52
2018-06-11T02:28:05.983Z,24.55
2018-06-11T02:29:10.163Z,24.45
2018-06-11T02:30:14.399Z,27.05
2018-06-11T02:31:18.612Z,26.37
2018-06-11T02:32:22.799Z,26.57
2018-06-11T02:33:27.078Z,25.80
2018-06-11T02:34:31.247Z,27.58
2018-06-11T02:35:35.699Z,27.13
2018-06-11T02:36:39.914Z,26.40
2018-06-11T02:37:44.123Z,29.05
2018-06-11T02:38:48.581Z,24.57
2018-06-11T02:39:52.789Z,26.07
2018-06-11T02:40:57.036Z,26.55
2018-06-11T02:42:01.247Z,25.45
2018-06-11T02:43:05.875Z,25.60
2018-06-11T02:44:10.080Z,25.30
2018-06-11T02:45:14.321Z,24.25
2018-06-11T02:46:18.547Z,22.87
2018-06-11T02:47:22.952Z,23.60
2018-06-11T02:48:27.244Z,24.15
2018-06-11T02:49:31.454Z,24.60
2018-06-11T02:50:35.693Z,23.38
2018-06-11T02:51:40.006Z,24.02
2018-06-11T02:52:44.255Z,22.62
2018-06-11T02:53:48.523Z,22.58
2018-06-11T02:54:52.794Z,22.85
2018-06-11T02:55:57.162Z,25.37
2018-06-11T02:57:01.414Z,23.98
2018-06-11T02:58:05.743Z,23.60
2018-06-11T02:59:09.976Z,22.90
2018-06-11T03:00:14.173Z,23.40
2018-06-11T03:01:18.589Z,23.27
2018-06-11T03:02:23.141Z,23.38
2018-06-11T03:03:27.484Z,25.15
2018-06-11T03:04:31.719Z,23.65
2018-06-11T03:05:36.261Z,23.57
2018-06-11T03:06:40.521Z,24.98
2018-06-11T03:07:45.459Z,22.42
2018-06-11T03:08:49.709Z,24.40
2018-06-11T03:09:54.045Z,24.02
2018-06-11T03:10:58.288Z,22.90
2018-06-11T03:12:02.492Z,24.20
2018-06-11T03:13:06.875Z,23.45
2018-06-11T03:14:11.088Z,23.20
2018-06-11T03:15:15.537Z,21.35
2018-06-11T03:16:20.035Z,26.35
2018-06-11T03:17:24.315Z,22.80
2018-06-11T03:18:28.578Z,24.18
2018-06-11T03:19:32.775Z,22.93
2018-06-11T03:20:37.013Z,21.20
2018-06-11T03:21:41.239Z,24.37
2018-06-11T03:22:45.455Z,22.07
2018-06-11T03:23:49.715Z,23.45
2018-06-11T03:24:53.976Z,25.57
2018-06-11T03:25:58.182Z,23.12
2018-06-11T03:27:02.397Z,21.70
2018-06-11T03:28:06.643Z,24.65
2018-06-11T03:29:10.948Z,23.10
2018-06-11T03:30:15.207Z,23.52
2018-06-11T03:31:19.598Z,24.60
2018-06-11T03:32:23.868Z,23.77
2018-06-11T03:33:28.140Z,24.35
2018-06-11T03:34:32.446Z,23.60
2018-06-11T03:35:36.690Z,22.80
2018-06-11T03:36:40.907Z,24.55
2018-06-11T03:37:45.114Z,20.52
2018-06-11T03:38:49.351Z,24.50
2018-06-11T03:39:53.783Z,19.77
2018-06-11T03:40:58.236Z,25.15
2018-06-11T03:42:02.590Z,24.55
2018-06-11T03:43:06.884Z,22.48
2018-06-11T03:44:11.296Z,22.77
2018-06-11T03:45:15.637Z,25.20
2018-06-11T03:46:19.875Z,26.30
2018-06-11T03:47:24.171Z,23.15
2018-06-11T03:48:28.387Z,22.48
2018-06-11T03:49:32.840Z,23.77
2018-06-11T03:50:37.141Z,23.25
2018-06-11T03:51:41.519Z,21.35
2018-06-11T03:52:45.769Z,21.62
2018-06-11T03:53:50.507Z,22.15
2018-06-11T03:54:54.909Z,22.80
2018-06-11T03:55:59.118Z,22.70
2018-06-11T03:57:03.419Z,23.15
2018-06-11T03:58:07.659Z,23.52
2018-06-11T03:59:11.991Z,23.00
2018-06-11T04:00:16.208Z,24.55
2018-06-11T04:01:20.458Z,22.13
2018-06-11T04:02:25.258Z,24.25
2018-06-11T04:03:29.474Z,21.60
2018-06-11T04:04:33.688Z,23.30
2018-06-11T04:05:37.969Z,23.77
2018-06-11T04:06:42.379Z,23.00
2018-06-11T04:07:46.638Z,21.90
2018-06-11T04:08:50.896Z,21.48
2018-06-11T04:09:55.187Z,23.10
2018-06-11T04:10:59.532Z,22.35
2018-06-11T04:12:03.678Z,22.17
2018-06-11T04:13:07.944Z,22.45
2018-06-11T04:14:12.200Z,22.85
2018-06-11T04:15:16.426Z,24.18
2018-06-11T04:16:20.660Z,24.82
2018-06-11T04:17:24.968Z,22.93
2018-06-11T04:18:29.172Z,21.97
2018-06-11T04:19:33.399Z,21.97
2018-06-11T04:20:37.610Z,23.32
2018-06-11T04:21:41.870Z,22.98
2018-06-11T04:22:46.109Z,22.90
2018-06-11T04:23:50.361Z,22.25
2018-06-11T04:24:54.652Z,22.00
2018-06-11T04:25:58.937Z,20.95
2018-06-11T04:27:03.364Z,22.32
2018-06-11T04:28:07.643Z,21.65
2018-06-11T04:29:11.903Z,22.13
2018-06-11T04:30:16.087Z,23.00
2018-06-11T04:31:20.328Z,21.02
2018-06-11T04:32:24.527Z,22.02
2018-06-11T04:33:28.785Z,20.88
2018-06-11T04:34:33.004Z,21.68
2018-06-11T04:35:37.226Z,21.62
2018-06-11T04:36:41.394Z,22.73
2018-06-11T04:37:45.621Z,22.00
2018-06-11T04:38:49.806Z,20.05
2018-06-11T04:39:54.062Z,21.45
2018-06-11T04:40:58.242Z,20.90
2018-06-11T04:42:02.483Z,21.02
2018-06-11T04:43:06.716Z,20.95
2018-06-11T04:44:10.936Z,19.07
2018-06-11T04:45:15.130Z,20.57
2018-06-11T04:46:19.619Z,20.88
2018-06-11T04:47:23.899Z,20.97
2018-06-11T04:48:28.151Z,20.70
2018-06-11T04:49:32.427Z,20.02
2018-06-11T04:50:36.676Z,22.37
2018-06-11T04:51:40.960Z,21.00
2018-06-11T04:52:45.291Z,21.07
2018-06-11T04:53:49.473Z,22.93
2018-06-11T04:54:53.840Z,20.62
2018-06-11T04:55:58.072Z,18.67
2018-06-11T04:57:02.321Z,21.05
2018-06-11T04:58:06.527Z,20.75
2018-06-11T04:59:10.825Z,20.60
2018-06-11T05:00:15.293Z,20.75
2018-06-11T05:01:19.579Z,19.98
2018-06-11T05:02:23.994Z,21.52
2018-06-11T05:03:28.169Z,20.82
2018-06-11T05:04:32.555Z,19.12
2018-06-11T05:05:36.882Z,21.52
2018-06-11T05:06:41.131Z,21.80
2018-06-11T05:07:45.702Z,21.05
2018-06-11T05:08:49.901Z,22.50
2018-06-11T05:09:54.140Z,20.37
2018-06-11T05:10:58.420Z,20.15
2018-06-11T05:12:02.639Z,20.75
2018-06-11T05:13:06.864Z,20.08
2018-06-11T05:14:11.190Z,22.93
2018-06-11T05:15:15.460Z,22.50
2018-06-11T05:16:19.746Z,22.37
2018-06-11T05:17:24.040Z,21.82
2018-06-11T05:18:28.669Z,21.87
2018-06-11T05:19:32.979Z,22.25
2018-06-11T05:20:37.180Z,21.30
2018-06-11T05:21:41.459Z,20.80
2018-06-11T05:22:45.888Z,22.22
2018-06-11T05:23:50.182Z,22.67
2018-06-11T05:24:54.393Z,22.17
2018-06-11T05:25:58.682Z,23.32
2018-06-11T05:27:02.917Z,22.85
2018-06-11T05:28:07.099Z,22.55
2018-06-11T05:29:11.347Z,22.77
2018-06-11T05:30:15.595Z,23.22
2018-06-11T05:31:19.906Z,22.50
2018-06-11T05:32:24.231Z,22.05
2018-06-11T05:33:28.509Z,21.73
2018-06-11T05:34:32.872Z,22.35
2018-06-11T05:35:37.277Z,24.02
2018-06-11T05:36:41.514Z,24.12
2018-06-11T05:37:45.808Z,22.52
2018-06-11T05:38:50.242Z,24.45
2018-06-11T05:39:54.565Z,22.60
2018-06-11T05:40:58.878Z,23.45
2018-06-11T05:42:03.179Z,23.77
2018-06-11T05:43:07.471Z,24.95
2018-06-11T05:44:11.710Z,23.85
2018-06-11T05:45:16.065Z,23.83
2018-06-11T05:46:20.479Z,23.07
2018-06-11T05:47:24.747Z,23.00
2018-06-11T05:48:28.978Z,25.48
2018-06-11T05:49:33.286Z,25.10
2018-06-11T05:50:37.575Z,24.37
2018-06-11T05:51:41.778Z,23.85
2018-06-11T05:52:46.099Z,25.23
2018-06-11T05:53:50.385Z,25.10
2018-06-11T05:54:54.690Z,24.52
2018-06-11T05:55:59.023Z,24.18
2018-06-11T05:57:03.220Z,25.50
2018-06-11T05:58:07.555Z,25.97
2018-06-11T05:59:11.816Z,26.75
2018-06-11T06:00:16.126Z,25.77
2018-06-11T06:01:20.367Z,25.48
2018-06-11T06:02:24.913Z,27.30
2018-06-11T06:03:29.109Z,28.02
2018-06-11T06:04:33.418Z,27.37
2018-06-11T06:05:37.753Z,28.80
2018-06-11T06:06:41.970Z,26.97
2018-06-11T06:07:46.192Z,28.73
2018-06-11T06:08:50.379Z,26.27
2018-06-11T06:09:54.572Z,25.48
2018-06-11T06:10:58.854Z,23.62
2018-06-11T06:12:03.184Z,29.07
2018-06-11T06:13:07.574Z,30.37
2018-06-11T06:14:11.859Z,29.77
2018-06-11T06:15:16.228Z,27.30
2018-06-11T06:16:20.490Z,31.17
2018-06-11T06:17:24.720Z,27.67
2018-06-11T06:18:30.346Z,26.40
2018-06-11T06:19:34.608Z,26.20
2018-06-11T06:20:38.835Z,26.20
2018-06-11T06:21:43.114Z,27.40
2018-06-11T06:22:47.312Z,24.23
2018-06-11T06:23:51.529Z,23.83
2018-06-11T06:24:55.759Z,22.60
2018-06-11T06:26:00.058Z,23.52
2018-06-11T06:27:04.398Z,22.82
2018-06-11T06:28:08.596Z,22.95
2018-06-11T06:29:12.866Z,22.70
2018-06-11T06:30:17.080Z,22.37
2018-06-11T06:31:21.292Z,22.37
2018-06-11T06:32:25.498Z,24.52
2018-06-11T06:33:29.704Z,22.70
2018-06-11T06:34:33.945Z,22.07
2018-06-11T06:35:38.114Z,23.25
2018-06-11T06:36:42.351Z,22.62
2018-06-11T06:37:46.965Z,19.95
2018-06-11T06:38:51.289Z,24.12
2018-06-11T06:39:55.671Z,21.15
2018-06-11T06:40:59.874Z,21.48
2018-06-11T06:42:04.123Z,21.17
2018-06-11T06:43:08.325Z,22.17
2018-06-11T06:44:12.522Z,22.50
2018-06-11T06:45:16.712Z,21.42
2018-06-11T06:46:21.133Z,22.30
2018-06-11T06:47:25.505Z,22.77
2018-06-11T06:48:29.711Z,20.92
2018-06-11T06:49:33.907Z,22.20
2018-06-11T06:50:38.148Z,22.65
2018-06-11T06:51:42.346Z,22.25
2018-06-11T06:52:46.594Z,20.62
2018-06-11T06:53:50.842Z,20.85
2018-06-11T06:54:55.228Z,20.23
2018-06-11T06:55:59.450Z,20.43
2018-06-11T06:57:04.031Z,21.97
2018-06-11T06:58:08.271Z,23.52
2018-06-11T06:59:12.461Z,25.08
2018-06-11T07:00:16.726Z,23.15
2018-06-11T07:01:20.896Z,22.52
2018-06-11T07:02:25.105Z,22.65
2018-06-11T07:03:29.551Z,24.00
2018-06-11T07:04:33.914Z,24.00
2018-06-11T07:05:38.135Z,22.48
2018-06-11T07:06:42.411Z,20.25
2018-06-11T07:07:46.736Z,22.05
2018-06-11T07:08:51.030Z,22.65
2018-06-11T07:09:55.237Z,23.02
2018-06-11T07:10:59.426Z,22.58
2018-06-11T07:12:03.838Z,21.68
2018-06-11T07:13:08.020Z,23.77
2018-06-11T07:14:12.252Z,23.90
2018-06-11T07:15:16.478Z,22.05
2018-06-11T07:16:20.719Z,23.45
2018-06-11T07:17:24.874Z,23.65
2018-06-11T07:18:29.026Z,23.80
2018-06-11T07:19:33.256Z,26.00
2018-06-11T07:20:37.494Z,21.45
2018-06-11T07:21:41.727Z,22.60
2018-06-11T07:22:45.898Z,23.32
2018-06-11T07:23:50.078Z,24.45
2018-06-11T07:24:54.297Z,21.68
2018-06-11T07:25:58.526Z,21.37
2018-06-11T07:27:02.825Z,24.75
2018-06-11T07:28:07.130Z,23.83
2018-06-11T07:29:11.316Z,22.42
2018-06-11T07:30:15.550Z,20.82
2018-06-11T07:31:19.801Z,23.02
2018-06-11T07:32:24.327Z,21.68
2018-06-11T07:33:28.604Z,23.25
2018-06-11T07:34:32.810Z,22.52
2018-06-11T07:35:36.987Z,22.90
2018-06-11T07:36:41.164Z,21.52
2018-06-11T07:37:45.315Z,21.70
2018-06-11T07:38:49.501Z,21.27
2018-06-11T07:39:53.757Z,22.17
2018-06-11T07:40:58.042Z,20.60
2018-06-11T07:42:02.209Z,22.20
2018-06-11T07:43:06.460Z,21.52
2018-06-11T07:44:10.659Z,21.97
2018-06-11T07:45:14.929Z,23.15
2018-06-11T07:46:19.121Z,20.30
2018-06-11T07:47:23.335Z,21.12
2018-06-11T07:48:27.563Z,22.40
2018-06-11T07:49:31.788Z,23.73
2018-06-11T07:50:36.074Z,21.62
2018-06-11T07:51:40.350Z,23.12
2018-06-11T07:52:44.503Z,20.68
2018-06-11T07:53:48.669Z,22.90
2018-06-11T07:54:52.896Z,21.85
2018-06-11T07:55:57.063Z,22.20
2018-06-11T07:57:01.308Z,23.40
2018-06-11T07:58:05.488Z,20.62
2018-06-11T07:59:09.981Z,21.42
2018-06-11T08:00:14.156Z,23.25
2018-06-11T08:01:18.395Z,20.50
2018-06-11T08:02:22.889Z,24.05
2018-06-11T08:03:27.234Z,21.25
2018-06-11T08:04:31.504Z,20.37
2018-06-11T08:05:35.735Z,22.20
2018-06-11T08:06:39.974Z,21.62
2018-06-11T08:07:44.202Z,21.57
2018-06-11T08:08:48.470Z,19.75
2018-06-11T08:09:53.059Z,19.45
2018-06-11T08:10:57.949Z,20.50
2018-06-11T08:12:02.131Z,17.25
2018-06-11T08:13:06.443Z,21.68
2018-06-11T08:14:10.844Z,18.87
2018-06-11T08:15:15.103Z,19.32
2018-06-11T08:16:19.615Z,20.77
2018-06-11T08:17:23.810Z,21.10
2018-06-11T08:18:28.198Z,19.25
2018-06-11T08:19:32.409Z,19.87
2018-06-11T08:20:36.608Z,21.17
2018-06-11T08:21:40.807Z,19.60
2018-06-11T08:22:44.001Z,19.02
2018-06-11T08:23:47.981Z,18.05
2018-06-11T08:24:52.194Z,19.02
2018-06-11T08:25:56.670Z,18.05
2018-06-11T08:27:00.901Z,18.02
2018-06-11T08:28:05.276Z,19.37
2018-06-11T08:29:09.503Z,18.73
2018-06-11T08:30:13.758Z,20.37
2018-06-11T08:31:18.027Z,19.32
2018-06-11T08:32:22.747Z,17.10
2018-06-11T08:33:26.967Z,18.57
2018-06-11T08:34:31.319Z,17.37
2018-06-11T08:35:35.797Z,18.10
2018-06-11T08:36:39.993Z,17.25
2018-06-11T08:37:44.203Z,19.17
2018-06-11T08:38:48.408Z,17.95
2018-06-11T08:39:52.631Z,17.60
2018-06-11T08:40:56.899Z,18.05
2018-06-11T08:42:01.134Z,16.85
2018-06-11T08:43:05.417Z,19.90
2018-06-11T08:44:09.642Z,19.52
2018-06-11T08:45:13.916Z,18.27
2018-06-11T08:46:18.185Z,18.87
2018-06-11T08:47:22.422Z,19.17
2018-06-11T08:48:26.658Z,19.37
2018-06-11T08:49:30.966Z,18.98
2018-06-11T08:50:35.326Z,19.32
2018-06-11T08:51:39.683Z,19.80
2018-06-11T08:52:43.856Z,20.02
2018-06-11T08:53:48.075Z,20.48
2018-06-11T08:54:52.362Z,19.00
2018-06-11T08:55:56.662Z,17.70
2018-06-11T08:57:00.959Z,18.40
2018-06-11T08:58:05.190Z,19.60
2018-06-11T08:59:09.444Z,19.05
2018-06-11T09:00:13.667Z,18.97
2018-06-11T09:01:17.951Z,19.40
2018-06-11T09:02:22.258Z,19.00
2018-06-11T09:03:26.534Z,19.07
2018-06-11T09:04:30.952Z,18.30
2018-06-11T09:05:35.371Z,17.10
2018-06-11T09:06:39.627Z,17.27
2018-06-11T09:07:43.853Z,19.32
2018-06-11T09:08:48.079Z,18.93
2018-06-11T09:09:52.322Z,18.33
2018-06-11T09:10:56.933Z,20.33
2018-06-11T09:12:01.130Z,20.68
2018-06-11T09:13:05.339Z,18.90
2018-06-11T09:14:09.526Z,20.70
2018-06-11T09:15:13.785Z,19.80
2018-06-11T09:16:17.962Z,19.73
2018-06-11T09:17:22.208Z,20.08
2018-06-11T09:18:26.424Z,18.50
2018-06-11T09:19:30.599Z,20.87
2018-06-11T09:20:34.964Z,20.62
2018-06-11T09:21:39.200Z,19.80
2018-06-11T09:22:43.420Z,20.50
2018-06-11T09:23:47.583Z,18.93
2018-06-11T09:24:51.755Z,21.07
2018-06-11T09:25:56.187Z,19.30
2018-06-11T09:27:00.403Z,19.90
2018-06-11T09:28:04.838Z,16.53
2018-06-11T09:29:09.044Z,20.33
2018-06-11T09:30:13.478Z,20.47
2018-06-11T09:31:17.681Z,18.90
2018-06-11T09:32:21.894Z,19.57
2018-06-11T09:33:26.278Z,20.80
2018-06-11T09:34:30.495Z,20.27
2018-06-11T09:35:34.743Z,20.43
2018-06-11T09:36:39.042Z,20.67
2018-06-11T09:37:43.234Z,21.15
2018-06-11T09:38:47.529Z,19.70
2018-06-11T09:39:51.798Z,21.20
2018-06-11T09:40:56.411Z,20.93
2018-06-11T09:42:00.594Z,19.87
2018-06-11T09:43:04.865Z,19.70
2018-06-11T09:44:09.296Z,20.25
2018-06-11T09:45:13.567Z,19.93
2018-06-11T09:46:17.890Z,20.90
2018-06-11T09:47:22.253Z,18.70
2018-06-11T09:48:26.534Z,20.10
2018-06-11T09:49:31.000Z,21.20
2018-06-11T09:50:35.218Z,18.73
2018-06-11T09:51:39.524Z,19.00
2018-06-11T09:52:43.931Z,20.57
2018-06-11T09:53:48.259Z,20.07
2018-06-11T09:54:52.474Z,19.63
2018-06-11T09:55:56.711Z,19.98
2018-06-11T09:57:00.986Z,20.10
2018-06-11T09:58:05.686Z,20.13
2018-06-11T09:59:09.932Z,20.10
2018-06-11T10:00:19.545Z,21.35
2018-06-11T10:01:23.747Z,22.17
2018-06-11T10:02:28.006Z,21.30
2018-06-11T10:03:32.167Z,20.30
2018-06-11T10:04:36.619Z,21.70
2018-06-11T10:05:41.407Z,19.50
2018-06-11T10:06:45.611Z,22.13
2018-06-11T10:07:50.178Z,21.97
2018-06-11T10:08:54.375Z,19.93
2018-06-11T10:09:58.561Z,21.30
2018-06-11T10:11:02.883Z,20.90
2018-06-11T10:12:07.099Z,19.63
2018-06-11T10:13:11.302Z,21.90
2018-06-11T10:14:15.491Z,22.23
2018-06-11T10:15:19.823Z,21.25
2018-06-11T10:16:24.035Z,20.57
2018-06-11T10:17:28.278Z,20.97
2018-06-11T10:18:32.495Z,20.65
2018-06-11T10:19:36.670Z,19.30
2018-06-11T10:20:41.046Z,22.77
2018-06-11T10:21:45.682Z,20.43
2018-06-11T10:22:49.903Z,21.30
2018-06-11T10:23:54.089Z,22.77
2018-06-11T10:24:58.292Z,23.23
2018-06-11T10:26:02.676Z,22.20
2018-06-11T10:27:07.326Z,21.00
2018-06-11T10:28:11.480Z,21.70
2018-06-11T10:29:15.694Z,21.60
2018-06-11T10:30:19.877Z,23.00
2018-06-11T10:31:24.155Z,18.70
2018-06-11T10:32:28.385Z,23.03
2018-06-11T10:33:32.635Z,22.90
2018-06-11T10:34:36.886Z,24.80
2018-06-11T10:35:41.083Z,23.50
2018-06-11T10:36:45.303Z,23.63
2018-06-11T10:37:49.550Z,23.27
2018-06-11T10:38:53.899Z,22.10
2018-06-11T10:39:58.180Z,20.72
2018-06-11T10:41:02.397Z,21.17
2018-06-11T10:42:06.677Z,22.15
2018-06-11T10:43:11.154Z,21.73
2018-06-11T10:44:15.374Z,22.80
2018-06-11T10:45:19.636Z,22.60
2018-06-11T10:46:23.819Z,24.67
2018-06-11T10:47:28.019Z,23.63
2018-06-11T10:48:32.657Z,23.53
2018-06-11T10:49:36.826Z,22.80
2018-06-11T10:50:41.010Z,24.63
2018-06-11T10:51:45.248Z,25.93
2018-06-11T10:52:49.487Z,23.37
2018-06-11T10:53:53.750Z,25.07
2018-06-11T10:54:57.941Z,23.80
2018-06-11T10:56:02.122Z,21.00
2018-06-11T10:57:06.491Z,27.20
2018-06-11T10:58:10.686Z,25.10
2018-06-11T10:59:14.964Z,24.17
2018-06-11T11:00:19.214Z,23.60
2018-06-11T11:01:23.387Z,25.80
2018-06-11T11:02:27.594Z,26.50
2018-06-11T11:03:31.780Z,26.30
2018-06-11T11:04:36.550Z,25.03
2018-06-11T11:05:40.706Z,26.60
2018-06-11T11:06:44.910Z,23.70
2018-06-11T11:07:49.087Z,23.60
2018-06-11T11:08:53.457Z,24.10
2018-06-11T11:09:57.690Z,22.70
2018-06-11T11:11:01.896Z,21.83
2018-06-11T11:12:06.080Z,19.87
2018-06-11T11:13:10.535Z,18.70
2018-06-11T11:14:14.947Z,17.50
2018-06-11T11:15:19.402Z,19.40
2018-06-11T11:16:23.684Z,17.53
2018-06-11T11:17:28.063Z,19.80
2018-06-11T11:18:32.307Z,18.40
2018-06-11T11:19:36.561Z,20.20
2018-06-11T11:20:40.869Z,18.30
2018-06-11T11:21:45.101Z,18.67
2018-06-11T11:22:49.318Z,19.23
2018-06-11T11:23:53.549Z,20.13
2018-06-11T11:24:57.737Z,19.00
2018-06-11T11:26:01.970Z,20.80
2018-06-11T11:27:06.207Z,19.13
2018-06-11T11:28:10.476Z,20.00
2018-06-11T11:29:14.642Z,20.50
2018-06-11T11:30:18.843Z,22.13
2018-06-11T11:31:23.093Z,22.70
2018-06-11T11:32:27.402Z,22.77
2018-06-11T11:33:31.663Z,22.30
2018-06-11T11:34:35.924Z,21.20
2018-06-11T11:35:40.096Z,21.80
2018-06-11T11:36:44.380Z,21.47
2018-06-11T11:37:48.598Z,25.03
2018-06-11T11:38:52.888Z,22.80
2018-06-11T11:39:57.132Z,23.97
2018-06-11T11:41:01.283Z,26.27
2018-06-11T11:42:05.504Z,27.10
2018-06-11T11:43:10.245Z,25.80
2018-06-11T11:44:14.605Z,26.80
2018-06-11T11:45:18.794Z,26.70
2018-06-11T11:46:23.260Z,24.77
2018-06-11T11:47:27.571Z,25.93
2018-06-11T11:48:32.419Z,23.83
2018-06-11T11:49:36.585Z,23.87
2018-06-11T11:50:40.823Z,22.33
2018-06-11T11:51:45.068Z,24.67
2018-06-11T11:52:49.307Z,21.47
2018-06-11T11:53:53.500Z,25.30
2018-06-11T11:54:57.703Z,24.57
2018-06-11T11:56:01.902Z,26.50
2018-06-11T11:57:06.159Z,27.60
2018-06-11T11:58:10.358Z,25.33
2018-06-11T11:59:14.852Z,25.53
2018-06-11T12:00:19.057Z,25.50
2018-06-11T12:01:23.316Z,25.10
2018-06-11T12:02:27.554Z,22.57
2018-06-11T12:03:31.795Z,24.03
2018-06-11T12:04:36.071Z,26.27
2018-06-11T12:05:40.458Z,24.73
2018-06-11T12:06:44.674Z,24.83
2018-06-11T12:07:48.903Z,22.97
2018-06-11T12:08:53.125Z,24.10
2018-06-11T12:09:57.291Z,20.60
2018-06-11T12:11:01.464Z,26.70
2018-06-11T12:12:05.688Z,25.40
2018-06-11T12:13:10.030Z,25.40
2018-06-11T12:14:14.277Z,26.20
2018-06-11T12:15:18.488Z,23.60
2018-06-11T12:16:22.725Z,23.57
2018-06-11T12:17:26.918Z,23.77
2018-06-11T12:18:31.161Z,25.63
2018-06-11T12:19:35.603Z,23.87
2018-06-11T12:20:39.999Z,22.17
2018-06-11T12:21:44.132Z,23.57
2018-06-11T12:22:48.318Z,23.90
2018-06-11T12:23:52.498Z,24.20
2018-06-11T12:24:56.835Z,23.57
2018-06-11T12:26:01.047Z,23.60
2018-06-11T12:27:05.281Z,24.10
2018-06-11T12:28:09.520Z,23.60
2018-06-11T12:29:13.686Z,21.70
2018-06-11T12:30:17.898Z,22.20
2018-06-11T12:31:22.140Z,20.50
2018-06-11T12:32:26.349Z,22.60
2018-06-11T12:33:30.526Z,22.60
2018-06-11T12:34:34.717Z,19.43
2018-06-11T12:35:39.014Z,20.60
2018-06-11T12:36:43.212Z,20.53
2018-06-11T12:37:47.432Z,19.63
2018-06-11T12:38:51.637Z,22.40
2018-06-11T12:39:56.118Z,21.57
2018-06-11T12:41:00.425Z,20.03
2018-06-11T12:42:04.681Z,23.37
2018-06-11T12:43:08.912Z,21.57
2018-06-11T12:44:13.081Z,22.90
2018-06-11T12:45:17.377Z,20.93
2018-06-11T12:46:21.696Z,19.03
2018-06-11T12:47:25.948Z,17.53
2018-06-11T12:48:30.153Z,18.43
2018-06-11T12:49:34.291Z,21.40
2018-06-11T12:50:38.490Z,20.43
2018-06-11T12:51:42.742Z,19.50
2018-06-11T12:52:46.969Z,18.33
2018-06-11T12:53:51.152Z,16.37
2018-06-11T12:54:55.293Z,16.60
2018-06-11T12:55:59.510Z,15.67
2018-06-11T12:57:03.778Z,15.87
2018-06-11T12:58:07.987Z,17.07
2018-06-11T12:59:12.154Z,14.23
2018-06-11T13:00:16.354Z,15.17
2018-06-11T13:01:20.704Z,13.60
2018-06-11T13:02:25.148Z,15.07
2018-06-11T13:03:29.390Z,14.73
2018-06-11T13:04:33.727Z,15.03
2018-06-11T13:05:38.267Z,14.77
2018-06-11T13:06:42.744Z,15.73
2018-06-11T13:07:46.926Z,13.27
2018-06-11T13:08:51.098Z,14.20
2018-06-11T13:09:55.364Z,13.73
2018-06-11T13:10:59.575Z,13.37
2018-06-11T13:12:03.856Z,12.60
2018-06-11T13:13:08.550Z,13.70
2018-06-11T13:14:12.773Z,14.50
2018-06-11T13:15:17.237Z,13.43
2018-06-11T13:16:21.467Z,12.50
2018-06-11T13:17:25.729Z,11.73
2018-06-11T13:18:30.092Z,11.53
2018-06-11T13:19:34.612Z,11.47
2018-06-11T13:20:39.009Z,13.13
2018-06-11T13:21:43.195Z,11.87
2018-06-11T13:22:47.815Z,12.80
2018-06-11T13:23:52.095Z,11.87
2018-06-11T13:24:56.298Z,11.43
2018-06-11T13:26:00.553Z,12.77
2018-06-11T13:27:04.850Z,11.73
2018-06-11T13:28:09.047Z,11.60
2018-06-11T13:29:13.376Z,9.73
2018-06-11T13:30:17.605Z,10.60
2018-06-11T13:31:21.942Z,9.93
2018-06-11T13:32:26.112Z,10.40
2018-06-11T13:33:30.328Z,10.40
2018-06-11T13:34:34.789Z,10.77
2018-06-11T13:35:38.954Z,10.23
2018-06-11T13:36:43.226Z,9.93
2018-06-11T13:37:47.435Z,10.83
2018-06-11T13:38:51.647Z,9.87
2018-06-11T13:39:55.914Z,9.40
2018-06-11T13:41:00.366Z,10.57
2018-06-11T13:42:04.625Z,10.33
2018-06-11T13:43:08.839Z,9.40
2018-06-11T13:44:13.022Z,9.30
2018-06-11T13:45:17.309Z,9.47
2018-06-11T13:46:21.754Z,8.17
2018-06-11T13:47:25.971Z,9.43
2018-06-11T13:48:30.223Z,8.70
2018-06-11T13:49:34.474Z,8.63